createdAt,value
2019-05-06T00:00:58.329Z,5.7
2019-05-06T00:01:53.916Z,5.5
2019-05-06T00:02:54.416Z,5.5
2019-05-06T00:03:54.137Z,5.6
2019-05-06T00:04:54.159Z,5.6
2019-05-06T00:05:54.273Z,5.5
2019-05-06T00:06:54.583Z,5.5
2019-05-06T00:07:54.333Z,5.6
2019-05-06T00:08:54.510Z,5.8
2019-05-06T00:09:53.833Z,5.8
2019-05-06T00:10:54.219Z,5.8
2019-05-06T00:11:54.265Z,5.6
2019-05-06T00:12:53.557Z,5.6
2019-05-06T00:13:54.256Z,5.7
2019-05-06T00:14:54.230Z,5.7
2019-05-06T00:15:54.328Z,5.7
2019-05-06T00:16:54.746Z,5.8
2019-05-06T00:17:53.840Z,5.7
2019-05-06T00:18:53.998Z,5.6
2019-05-06T00:19:53.915Z,5.4
2019-05-06T00:20:54.734Z,5.5
2019-05-06T00:21:54.004Z,5.7
2019-05-06T00:22:54.569Z,5.7
2019-05-06T00:23:54.547Z,5.7
2019-05-06T00:24:54.690Z,5.6
2019-05-06T00:25:53.643Z,5.7
2019-05-06T00:26:56.774Z,5.7
2019-05-06T00:27:54.364Z,5.6
2019-05-06T00:28:54.027Z,5.5
2019-05-06T00:29:54.930Z,5.5
2019-05-06T00:30:55.767Z,5.5
2019-05-06T00:31:53.963Z,5.5
2019-05-06T00:32:54.033Z,5.7
2019-05-06T00:33:54.220Z,5.6
2019-05-06T00:34:54.691Z,5.5
2019-05-06T00:35:54.183Z,5.3
2019-05-06T00:36:54.556Z,5.4
2019-05-06T00:37:54.318Z,5.6
2019-05-06T00:38:54.431Z,5.5
2019-05-06T00:39:54.421Z,5.5
2019-05-06T00:40:54.490Z,5.5
2019-05-06T00:41:54.518Z,5.5
2019-05-06T00:42:54.549Z,5.5
2019-05-06T00:43:54.755Z,5.5
2019-05-06T00:44:54.691Z,5.7
2019-05-06T00:45:54.728Z,5.8
2019-05-06T00:46:55.786Z,5.7
2019-05-06T00:47:54.860Z,5.8
2019-05-06T00:48:54.909Z,5.7
2019-05-06T00:49:54.962Z,5.6
2019-05-06T00:50:55.024Z,5.7
2019-05-06T00:51:55.165Z,5.5
2019-05-06T00:52:55.170Z,5.5
2019-05-06T00:53:55.202Z,5.7
2019-05-06T00:54:55.241Z,5.7
2019-05-06T00:55:55.294Z,5.7
2019-05-06T00:56:55.355Z,5.7
2019-05-06T00:57:55.378Z,5.6
2019-05-06T00:58:55.478Z,5.6
2019-05-06T00:59:55.513Z,5.7
2019-05-06T01:00:55.590Z,5.7
2019-05-06T01:01:55.641Z,5.8
2019-05-06T01:02:55.685Z,5.8
2019-05-06T01:03:55.761Z,5.6
2019-05-06T01:04:55.791Z,5.7
2019-05-06T01:05:55.859Z,5.7
2019-05-06T01:06:55.917Z,5.7
2019-05-06T01:07:55.948Z,5.7
2019-05-06T01:08:56.087Z,5.7
2019-05-06T01:09:56.088Z,5.6
2019-05-06T01:10:56.153Z,5.6
2019-05-06T01:11:56.313Z,5.5
2019-05-06T01:12:56.251Z,5.2
2019-05-06T01:13:56.362Z,5
2019-05-06T01:14:56.352Z,5.1
2019-05-06T01:15:56.428Z,5.1
2019-05-06T01:16:56.583Z,5.2
2019-05-06T01:17:56.575Z,5.2
2019-05-06T01:18:56.713Z,5.1
2019-05-06T01:19:56.691Z,5.2
2019-05-06T01:20:56.746Z,5.1
2019-05-06T01:21:56.792Z,5.1
2019-05-06T01:22:56.835Z,5
2019-05-06T01:23:56.895Z,5.1
2019-05-06T01:24:56.985Z,5.1
2019-05-06T01:25:57.012Z,5.1
2019-05-06T01:26:57.069Z,5.1
2019-05-06T01:27:57.120Z,5
2019-05-06T01:28:57.217Z,5
2019-05-06T01:29:57.267Z,5
2019-05-06T01:30:57.288Z,5.2
2019-05-06T01:31:57.346Z,5.2
2019-05-06T01:32:57.392Z,5.1
2019-05-06T01:33:57.472Z,4.9
2019-05-06T01:34:57.517Z,4.9
2019-05-06T01:35:57.553Z,4.9
2019-05-06T01:36:57.580Z,4.9
2019-05-06T01:37:57.665Z,5.1
2019-05-06T01:38:57.771Z,5.3
2019-05-06T01:39:57.803Z,5.2
2019-05-06T01:40:57.825Z,5
2019-05-06T01:41:57.906Z,4.8
2019-05-06T01:42:57.955Z,4.6
2019-05-06T01:43:58.093Z,4.5
2019-05-06T01:44:58.081Z,4.5
2019-05-06T01:45:58.175Z,4.5
2019-05-06T01:46:58.415Z,4.6
2019-05-06T01:47:58.322Z,4.9
2019-05-06T01:48:58.400Z,4.9
2019-05-06T01:49:58.371Z,4.9
2019-05-06T01:50:58.426Z,4.7
2019-05-06T01:51:58.488Z,4.6
2019-05-06T01:52:58.552Z,4.5
2019-05-06T01:53:58.617Z,4.7
2019-05-06T01:54:58.674Z,4.6
2019-05-06T01:55:58.721Z,4.5
2019-05-06T01:56:58.763Z,4.4
2019-05-06T01:57:58.841Z,4.3
2019-05-06T01:58:58.875Z,4.4
2019-05-06T01:59:58.950Z,4.5
2019-05-06T02:00:59.011Z,4.5
2019-05-06T02:02:01.084Z,4.5
2019-05-06T02:02:59.174Z,4.6
2019-05-06T02:03:59.213Z,4.8
2019-05-06T02:04:59.237Z,4.8
2019-05-06T02:05:59.313Z,4.6
2019-05-06T02:06:59.381Z,4.6
2019-05-06T02:07:59.431Z,4.5
2019-05-06T02:08:59.561Z,4.5
2019-05-06T02:09:59.511Z,4.6
2019-05-06T02:10:59.570Z,4.6
2019-05-06T02:11:59.682Z,4.7
2019-05-06T02:12:59.719Z,4.8
2019-05-06T02:13:59.780Z,4.8
2019-05-06T02:14:59.820Z,5
2019-05-06T02:15:59.892Z,5
2019-05-06T02:16:59.938Z,5.1
2019-05-06T02:18:00.001Z,5.3
2019-05-06T02:19:00.107Z,5.3
2019-05-06T02:20:00.120Z,5.3
2019-05-06T02:21:00.569Z,5.3
2019-05-06T02:22:00.491Z,5.3
2019-05-06T02:23:00.481Z,5.3
2019-05-06T02:24:00.565Z,5.4
2019-05-06T02:25:00.749Z,5.5
2019-05-06T02:26:00.580Z,5.5
2019-05-06T02:27:00.565Z,5.4
2019-05-06T02:28:00.574Z,5.3
2019-05-06T02:29:00.696Z,5.3
2019-05-06T02:30:00.695Z,5.3
2019-05-06T02:31:00.773Z,5.3
2019-05-06T02:32:15.729Z,5.3
2019-05-06T02:33:00.841Z,5.2
2019-05-06T02:34:01.536Z,5
2019-05-06T02:35:00.977Z,5
2019-05-06T02:36:01.040Z,5
2019-05-06T02:37:01.074Z,4.9
2019-05-06T02:38:01.154Z,5
2019-05-06T02:39:03.584Z,4.9
2019-05-06T02:40:04.037Z,4.9
2019-05-06T02:41:03.426Z,4.9
2019-05-06T02:42:03.929Z,5
2019-05-06T02:43:03.217Z,5.1
2019-05-06T02:44:03.507Z,4.9
2019-05-06T02:45:03.873Z,4.9
2019-05-06T02:46:04.148Z,4.8
2019-05-06T02:47:02.858Z,4.8
2019-05-06T02:48:04.382Z,4.7
2019-05-06T02:49:03.883Z,4.6
2019-05-06T02:50:04.346Z,4.5
2019-05-06T02:51:03.648Z,4.5
2019-05-06T02:52:02.994Z,4.5
2019-05-06T02:53:02.635Z,4.5
2019-05-06T02:54:03.186Z,4.6
2019-05-06T02:55:02.147Z,4.7
2019-05-06T02:56:03.977Z,4.6
2019-05-06T02:57:04.145Z,4.5
2019-05-06T02:58:02.852Z,4.4
2019-05-06T02:59:03.891Z,4.5
2019-05-06T03:00:04.972Z,4.6
2019-05-06T03:01:03.452Z,4.6
2019-05-06T03:02:03.478Z,4.6
2019-05-06T03:03:02.938Z,4.7
2019-05-06T03:04:04.381Z,4.7
2019-05-06T03:05:04.216Z,4.8
2019-05-06T03:06:03.772Z,4.8
2019-05-06T03:07:03.611Z,4.8
2019-05-06T03:08:03.307Z,4.8
2019-05-06T03:09:03.267Z,4.8
2019-05-06T03:10:04.069Z,4.7
2019-05-06T03:11:04.113Z,4.7
2019-05-06T03:12:03.686Z,4.6
2019-05-06T03:13:03.207Z,4.6
2019-05-06T03:14:03.556Z,4.6
2019-05-06T03:15:03.558Z,4.6
2019-05-06T03:16:05.715Z,4.5
2019-05-06T03:17:03.805Z,4.4
2019-05-06T03:18:03.443Z,4.4
2019-05-06T03:19:04.217Z,4.6
2019-05-06T03:20:04.371Z,4.6
2019-05-06T03:21:03.978Z,4.7
2019-05-06T03:22:03.686Z,4.6
2019-05-06T03:23:03.990Z,4.6
2019-05-06T03:24:07.301Z,4.7
2019-05-06T03:25:06.734Z,4.7
2019-05-06T03:26:06.452Z,4.6
2019-05-06T03:27:04.735Z,4.7
2019-05-06T03:28:04.439Z,4.7
2019-05-06T03:29:04.068Z,4.7
2019-05-06T03:30:04.495Z,4.7
2019-05-06T03:31:06.571Z,4.8
2019-05-06T03:32:06.708Z,4.8
2019-05-06T03:34:24.212Z,5.1
2019-05-06T03:35:24.463Z,4.9
2019-05-06T03:36:14.005Z,4.8
2019-05-06T03:37:07.154Z,4.7
2019-05-06T03:38:04.540Z,4.6
2019-05-06T03:39:04.672Z,4.7
2019-05-06T03:40:04.670Z,4.8
2019-05-06T03:41:04.726Z,4.7
2019-05-06T03:42:05.003Z,4.7
2019-05-06T03:43:04.800Z,4.6
2019-05-06T03:44:04.892Z,4.6
2019-05-06T03:45:04.943Z,4.8
2019-05-06T03:46:05.063Z,4.8
2019-05-06T03:47:05.614Z,4.8
2019-05-06T03:48:05.817Z,4.7
2019-05-06T03:49:05.242Z,4.8
2019-05-06T03:50:05.239Z,4.8
2019-05-06T03:51:05.251Z,4.9
2019-05-06T03:52:05.332Z,5
2019-05-06T03:53:05.391Z,5.1
2019-05-06T03:54:05.497Z,5.1
2019-05-06T03:55:05.583Z,5
2019-05-06T03:56:05.625Z,5.1
2019-05-06T03:57:05.627Z,5.1
2019-05-06T03:58:05.658Z,5.1
2019-05-06T03:59:05.769Z,5.2
2019-05-06T04:00:05.775Z,5.3
2019-05-06T04:01:05.827Z,5.2
2019-05-06T04:02:05.938Z,5.3
2019-05-06T04:03:05.949Z,5.1
2019-05-06T04:04:06.032Z,5.1
2019-05-06T04:05:06.046Z,5
2019-05-06T04:06:06.119Z,5.1
2019-05-06T04:07:06.113Z,5
2019-05-06T04:08:06.242Z,4.9
2019-05-06T04:09:06.366Z,4.9
2019-05-06T04:10:06.373Z,4.9
2019-05-06T04:11:06.443Z,5.1
2019-05-06T04:12:06.492Z,5.1
2019-05-06T04:13:06.535Z,5.1
2019-05-06T04:14:06.598Z,5
2019-05-06T04:15:06.689Z,5
2019-05-06T04:16:06.703Z,5.1
2019-05-06T04:17:07.179Z,5.2
2019-05-06T04:18:06.851Z,5.2
2019-05-06T04:19:06.949Z,5.4
2019-05-06T04:20:07.009Z,5.3
2019-05-06T04:21:08.833Z,5.2
2019-05-06T04:22:07.071Z,5.3
2019-05-06T04:23:07.283Z,5.3
2019-05-06T04:24:07.289Z,5.4
2019-05-06T04:25:08.356Z,5.3
2019-05-06T04:26:07.443Z,5.3
2019-05-06T04:27:07.464Z,5.2
2019-05-06T04:28:07.540Z,5.3
2019-05-06T04:29:07.743Z,5.4
2019-05-06T04:30:07.797Z,5.3
2019-05-06T04:31:07.646Z,5.4
2019-05-06T04:32:07.703Z,5.4
2019-05-06T04:33:12.714Z,5.3
2019-05-06T04:34:14.292Z,5.4
2019-05-06T04:35:07.900Z,5.4
2019-05-06T04:36:07.898Z,5.4
2019-05-06T04:37:07.984Z,5.3
2019-05-06T04:38:08.061Z,5.1
2019-05-06T04:39:08.123Z,4.9
2019-05-06T04:40:08.153Z,4.9
2019-05-06T04:41:08.314Z,4.9
2019-05-06T04:42:09.436Z,4.9
2019-05-06T04:43:08.331Z,4.8
2019-05-06T04:44:08.428Z,4.8
2019-05-06T04:45:08.445Z,4.7
2019-05-06T04:46:08.517Z,4.7
2019-05-06T04:47:08.861Z,4.7
2019-05-06T04:48:08.787Z,4.9
2019-05-06T04:49:11.910Z,5.1
2019-05-06T04:50:09.060Z,5
2019-05-06T04:51:09.154Z,5
2019-05-06T04:52:08.832Z,5
2019-05-06T04:53:09.237Z,4.9
2019-05-06T04:54:09.229Z,4.9
2019-05-06T04:55:09.003Z,4.9
2019-05-06T04:56:09.040Z,4.8
2019-05-06T04:57:09.122Z,4.9
2019-05-06T04:58:09.214Z,5
2019-05-06T04:59:09.687Z,4.9
2019-05-06T05:00:09.223Z,5
2019-05-06T05:01:12.873Z,5
2019-05-06T05:02:13.335Z,5.1
2019-05-06T05:03:09.424Z,5
2019-05-06T05:04:24.195Z,4.9
2019-05-06T05:05:09.537Z,5
2019-05-06T05:06:09.575Z,5
2019-05-06T05:07:09.818Z,4.9
2019-05-06T05:08:09.756Z,4.7
2019-05-06T05:09:14.319Z,4.8
2019-05-06T05:10:12.327Z,4.8
2019-05-06T05:11:09.937Z,4.9
2019-05-06T05:12:09.888Z,5.1
2019-05-06T05:13:12.394Z,5.2
2019-05-06T05:14:10.106Z,5.1
2019-05-06T05:15:11.811Z,5.1
2019-05-06T05:16:12.800Z,5.3
2019-05-06T05:17:10.437Z,5.2
2019-05-06T05:18:10.267Z,5.2
2019-05-06T05:19:12.127Z,5.2
2019-05-06T05:20:12.547Z,5.1
2019-05-06T05:21:11.878Z,5.2
2019-05-06T05:22:12.322Z,5.3
2019-05-06T05:23:11.848Z,5.3
2019-05-06T05:24:11.976Z,5.3
2019-05-06T05:25:12.179Z,5.4
2019-05-06T05:26:12.047Z,5.4
2019-05-06T05:27:12.510Z,5.5
2019-05-06T05:28:12.869Z,5.5
2019-05-06T05:29:12.364Z,5.4
2019-05-06T05:30:12.417Z,5.2
2019-05-06T05:31:12.240Z,5
2019-05-06T05:32:12.705Z,5
2019-05-06T05:33:12.308Z,5.3
2019-05-06T05:34:12.703Z,5.4
2019-05-06T05:35:12.681Z,5.4
2019-05-06T05:36:12.345Z,5.5
2019-05-06T05:37:12.245Z,5.6
2019-05-06T05:38:12.965Z,5.8
2019-05-06T05:39:12.694Z,5.8
2019-05-06T05:40:12.928Z,5.5
2019-05-06T05:41:12.136Z,5.4
2019-05-06T05:42:12.316Z,5.2
2019-05-06T05:43:11.793Z,5.3
2019-05-06T05:44:13.388Z,5.3
2019-05-06T05:45:12.820Z,5.3
2019-05-06T05:46:12.671Z,5.3
2019-05-06T05:47:13.035Z,5.4
2019-05-06T05:48:12.423Z,5.3
2019-05-06T05:49:12.152Z,5.3
2019-05-06T05:50:13.263Z,5.5
2019-05-06T05:51:12.802Z,5.7
2019-05-06T05:52:12.710Z,5.5
2019-05-06T05:53:13.123Z,5.4
2019-05-06T05:54:13.306Z,5.4
2019-05-06T05:55:13.978Z,5.1
2019-05-06T05:56:13.100Z,5.1
2019-05-06T05:57:13.368Z,5.1
2019-05-06T05:58:13.389Z,5.2
2019-05-06T05:59:15.436Z,5.3
2019-05-06T06:00:14.016Z,5.4
2019-05-06T06:01:13.880Z,5.3
2019-05-06T06:02:14.044Z,5.3
2019-05-06T06:03:12.800Z,5.5
2019-05-06T06:04:14.476Z,5.4
2019-05-06T06:05:12.943Z,5.5
2019-05-06T06:06:12.941Z,5.6
2019-05-06T06:07:13.006Z,5.5
2019-05-06T06:08:13.377Z,5.4
2019-05-06T06:09:13.291Z,5.3
2019-05-06T06:10:13.326Z,5.4
2019-05-06T06:11:13.451Z,5.4
2019-05-06T06:12:13.371Z,5.4
2019-05-06T06:13:13.611Z,5.4
2019-05-06T06:14:13.470Z,5.5
2019-05-06T06:15:13.784Z,5.5
2019-05-06T06:16:13.508Z,5.6
2019-05-06T06:17:13.580Z,5.7
2019-05-06T06:18:13.691Z,5.7
2019-05-06T06:19:13.719Z,5.7
2019-05-06T06:20:13.830Z,5.7
2019-05-06T06:21:18.414Z,5.6
2019-05-06T06:22:13.945Z,5.6
2019-05-06T06:23:14.012Z,5.8
2019-05-06T06:24:14.569Z,6
2019-05-06T06:25:14.371Z,6.1
2019-05-06T06:26:14.251Z,5.9
2019-05-06T06:27:14.285Z,5.8
2019-05-06T06:28:14.365Z,6
2019-05-06T06:29:14.385Z,6.1
2019-05-06T06:30:14.479Z,6.1
2019-05-06T06:31:14.497Z,6.2
2019-05-06T06:32:14.560Z,6.2
2019-05-06T06:33:14.634Z,6.1
2019-05-06T06:34:14.755Z,6
2019-05-06T06:35:14.881Z,6.1
2019-05-06T06:36:14.781Z,6
2019-05-06T06:37:14.819Z,5.8
2019-05-06T06:38:14.903Z,5.7
2019-05-06T06:39:14.939Z,5.8
2019-05-06T06:40:15.043Z,5.8
2019-05-06T06:41:39.949Z,5.8
2019-05-06T06:42:15.117Z,6
2019-05-06T06:43:15.171Z,6.2
2019-05-06T06:44:15.292Z,6.4
2019-05-06T06:45:15.338Z,6.3
2019-05-06T06:46:15.416Z,6.2
2019-05-06T06:47:15.382Z,5.9
2019-05-06T06:48:15.471Z,6.1
2019-05-06T06:49:15.516Z,6
2019-05-06T06:50:15.631Z,6.1
2019-05-06T06:51:15.655Z,6.2
2019-05-06T06:52:15.717Z,6.1
2019-05-06T06:53:15.740Z,6
2019-05-06T06:54:15.812Z,6
2019-05-06T06:55:18.449Z,6.1
2019-05-06T06:56:15.928Z,6.1
2019-05-06T06:57:16.066Z,23.8
2019-05-06T06:58:16.020Z,6.2
2019-05-06T06:59:16.085Z,6.2
2019-05-06T07:00:16.261Z,6.3
2019-05-06T07:01:16.187Z,6.2
2019-05-06T07:02:16.302Z,6.1
2019-05-06T07:03:16.304Z,6.2
2019-05-06T07:04:16.417Z,6.1
2019-05-06T07:05:25.332Z,6
2019-05-06T07:06:16.535Z,6
2019-05-06T07:07:16.556Z,14.6
2019-05-06T07:08:16.589Z,5.8
2019-05-06T07:09:16.640Z,6
2019-05-06T07:10:16.729Z,6.1
2019-05-06T07:11:16.756Z,6.1
2019-05-06T07:12:16.839Z,6.3
2019-05-06T07:13:16.897Z,6.7
2019-05-06T07:14:16.933Z,6.9
2019-05-06T07:15:17.052Z,7
2019-05-06T07:16:17.051Z,7
2019-05-06T07:17:17.449Z,7.1
2019-05-06T07:18:17.156Z,7.1
2019-05-06T07:19:17.200Z,15.9
2019-05-06T07:20:17.284Z,7.3
2019-05-06T07:21:17.324Z,7.1
2019-05-06T07:22:17.367Z,7.3
2019-05-06T07:23:17.445Z,7
2019-05-06T07:24:17.466Z,6.9
2019-05-06T07:25:17.626Z,6.9
2019-05-06T07:26:17.564Z,7.1
2019-05-06T07:27:17.622Z,7.1
2019-05-06T07:28:17.752Z,7.2
2019-05-06T07:29:23.316Z,7.2
2019-05-06T07:30:17.836Z,7.2
2019-05-06T07:31:22.553Z,7.3
2019-05-06T07:32:17.970Z,7.3
2019-05-06T07:33:17.954Z,7.2
2019-05-06T07:34:18.035Z,7.3
2019-05-06T07:35:18.103Z,7.4
2019-05-06T07:36:20.111Z,7.4
2019-05-06T07:37:18.175Z,7.4
2019-05-06T07:38:18.250Z,7.4
2019-05-06T07:39:18.321Z,24.7
2019-05-06T07:40:18.393Z,7.7
2019-05-06T07:41:18.428Z,7.9
2019-05-06T07:42:18.490Z,7.8
2019-05-06T07:43:18.548Z,7.8
2019-05-06T07:44:18.579Z,8
2019-05-06T07:45:18.653Z,8.1
2019-05-06T07:46:18.702Z,7.8
2019-05-06T07:47:18.766Z,7.8
2019-05-06T07:48:18.800Z,7.7
2019-05-06T07:49:18.857Z,7.6
2019-05-06T07:50:18.990Z,7.6
2019-05-06T07:51:19.017Z,7.6
2019-05-06T07:52:19.047Z,7.7
2019-05-06T07:53:19.067Z,7.8
2019-05-06T07:54:19.246Z,7.7
2019-05-06T07:55:19.194Z,7.6
2019-05-06T07:56:19.312Z,7.7
2019-05-06T07:57:19.390Z,7.8
2019-05-06T07:58:19.492Z,7.6
2019-05-06T07:59:19.397Z,7.8
2019-05-06T08:00:19.468Z,7.8
2019-05-06T08:01:19.835Z,7.8
2019-05-06T08:02:19.590Z,7.9
2019-05-06T08:03:22.007Z,7.8
2019-05-06T08:04:19.662Z,7.4
2019-05-06T08:05:19.745Z,7.5
2019-05-06T08:06:19.838Z,7.6
2019-05-06T08:07:22.048Z,7.5
2019-05-06T08:08:19.906Z,7.5
2019-05-06T08:09:21.976Z,7.4
2019-05-06T08:10:22.010Z,7.4
2019-05-06T08:11:22.062Z,7.5
2019-05-06T08:12:22.224Z,7.6
2019-05-06T08:13:22.462Z,7.7
2019-05-06T08:14:22.349Z,7.8
2019-05-06T08:15:22.541Z,7.7
2019-05-06T08:16:22.313Z,7.7
2019-05-06T08:17:22.176Z,7.8
2019-05-06T08:18:21.891Z,7.7
2019-05-06T08:19:22.595Z,7.7
2019-05-06T08:20:22.118Z,7.6
2019-05-06T08:21:22.330Z,7.5
2019-05-06T08:22:22.553Z,7.6
2019-05-06T08:23:22.023Z,7.7
2019-05-06T08:24:22.725Z,7.8
2019-05-06T08:25:22.911Z,7.7
2019-05-06T08:26:22.340Z,7.7
2019-05-06T08:27:22.703Z,7.8
2019-05-06T08:28:22.521Z,7.8
2019-05-06T08:29:22.458Z,7.9
2019-05-06T08:30:23.051Z,8
2019-05-06T08:31:22.326Z,7.8
2019-05-06T08:32:22.738Z,7.6
2019-05-06T08:33:21.942Z,7.7
2019-05-06T08:34:22.571Z,7.7
2019-05-06T08:35:22.719Z,7.8
2019-05-06T08:36:22.535Z,7.9
2019-05-06T08:37:22.725Z,7.9
2019-05-06T08:38:22.584Z,8
2019-05-06T08:39:21.982Z,8
2019-05-06T08:40:22.675Z,7.9
2019-05-06T08:41:22.713Z,7.8
2019-05-06T08:42:22.412Z,7.5
2019-05-06T08:43:21.995Z,7.6
2019-05-06T08:44:22.460Z,7.7
2019-05-06T08:45:22.064Z,7.7
2019-05-06T08:46:23.421Z,7.8
2019-05-06T08:47:22.377Z,7.8
2019-05-06T08:48:22.226Z,8
2019-05-06T08:49:22.575Z,33.5
2019-05-06T08:50:22.180Z,7.7
2019-05-06T08:51:27.360Z,7.5
2019-05-06T08:52:22.296Z,7.5
2019-05-06T08:53:24.158Z,7.4
2019-05-06T08:54:22.845Z,7.5
2019-05-06T08:55:22.506Z,7.5
2019-05-06T08:56:22.557Z,7.4
2019-05-06T08:57:22.846Z,7.4
2019-05-06T08:58:22.720Z,7.6
2019-05-06T08:59:23.965Z,7.6
2019-05-06T09:00:22.879Z,7.4
2019-05-06T09:01:22.807Z,7.4
2019-05-06T09:02:22.981Z,7.4
2019-05-06T09:03:23.099Z,7.4
2019-05-06T09:04:23.093Z,7.4
2019-05-06T09:05:23.259Z,7.4
2019-05-06T09:06:29.881Z,7.3
2019-05-06T09:07:33.139Z,7.1
2019-05-06T09:08:23.199Z,7.3
2019-05-06T09:09:23.238Z,7.4
2019-05-06T09:10:23.349Z,7.2
2019-05-06T09:11:25.670Z,7.3
2019-05-06T09:12:23.404Z,7.3
2019-05-06T09:13:23.533Z,7.3
2019-05-06T09:14:23.898Z,7.3
2019-05-06T09:15:23.577Z,7.5
2019-05-06T09:16:23.618Z,7.4
2019-05-06T09:17:23.778Z,7.5
2019-05-06T09:18:24.140Z,7.4
2019-05-06T09:19:23.864Z,7.4
2019-05-06T09:20:23.871Z,7.5
2019-05-06T09:21:23.945Z,7.4
2019-05-06T09:22:24.042Z,7.5
2019-05-06T09:23:27.083Z,7.7
2019-05-06T09:24:24.178Z,7.8
2019-05-06T09:25:24.235Z,7.8
2019-05-06T09:26:24.299Z,7.8
2019-05-06T09:27:24.373Z,7.7
2019-05-06T09:28:24.447Z,7.7
2019-05-06T09:29:24.496Z,7.7
2019-05-06T09:30:24.587Z,7.8
2019-05-06T09:31:24.623Z,7.9
2019-05-06T09:32:24.707Z,7.7
2019-05-06T09:33:24.754Z,7.6
2019-05-06T09:34:24.754Z,7.6
2019-05-06T09:35:24.846Z,7.7
2019-05-06T09:36:38.909Z,7.8
2019-05-06T09:37:24.987Z,7.8
2019-05-06T09:38:25.030Z,7.8
2019-05-06T09:39:25.077Z,8
2019-05-06T09:40:25.109Z,8.1
2019-05-06T09:41:25.171Z,8.1
2019-05-06T09:42:25.279Z,8.2
2019-05-06T09:43:25.345Z,8.1
2019-05-06T09:44:25.496Z,8
2019-05-06T09:45:25.384Z,8
2019-05-06T09:46:25.453Z,8.2
2019-05-06T09:47:25.564Z,8.3
2019-05-06T09:48:25.563Z,8.6
2019-05-06T09:49:25.644Z,8.9
2019-05-06T09:50:25.684Z,9.1
2019-05-06T09:51:25.755Z,9.5
2019-05-06T09:52:25.876Z,10
2019-05-06T09:53:25.863Z,9.9
2019-05-06T09:54:25.963Z,9.3
2019-05-06T09:55:26.027Z,17.8
2019-05-06T09:56:26.120Z,10.1
2019-05-06T09:57:26.361Z,10.5
2019-05-06T09:58:26.236Z,10.7
2019-05-06T09:59:26.355Z,10.6
2019-05-06T10:00:26.346Z,10.5
2019-05-06T10:01:26.388Z,10.7
2019-05-06T10:02:26.550Z,11
2019-05-06T10:03:26.596Z,19.3
2019-05-06T10:04:26.609Z,11.2
2019-05-06T10:05:26.676Z,11.4
2019-05-06T10:06:26.751Z,11.4
2019-05-06T10:07:27.039Z,10.8
2019-05-06T10:08:27.971Z,10.3
2019-05-06T10:09:28.171Z,10.2
2019-05-06T10:10:28.161Z,10.7
2019-05-06T10:11:27.020Z,10.7
2019-05-06T10:12:27.953Z,11
2019-05-06T10:13:27.097Z,11.2
2019-05-06T10:14:27.234Z,10.7
2019-05-06T10:15:27.245Z,10.3
2019-05-06T10:16:27.497Z,10.1
2019-05-06T10:17:27.806Z,9.9
2019-05-06T10:18:27.578Z,9.6
2019-05-06T10:19:27.577Z,9.4
2019-05-06T10:20:27.592Z,9.3
2019-05-06T10:21:27.580Z,9.3
2019-05-06T10:22:27.648Z,9.3
2019-05-06T10:23:27.690Z,9.5
2019-05-06T10:24:27.761Z,9.6
2019-05-06T10:25:27.828Z,9.9
2019-05-06T10:26:27.841Z,10
2019-05-06T10:27:27.945Z,9.9
2019-05-06T10:28:28.007Z,9.9
2019-05-06T10:29:28.437Z,10
2019-05-06T10:30:28.278Z,9.9
2019-05-06T10:31:28.922Z,9.9
2019-05-06T10:32:34.225Z,9.7
2019-05-06T10:33:28.294Z,9.7
2019-05-06T10:34:28.388Z,9.5
2019-05-06T10:35:29.820Z,9.4
2019-05-06T10:36:28.419Z,9.4
2019-05-06T10:37:28.475Z,9.3
2019-05-06T10:38:28.474Z,9.1
2019-05-06T10:39:29.456Z,8.9
2019-05-06T10:40:29.310Z,8.9
2019-05-06T10:41:29.200Z,8.8
2019-05-06T10:42:28.718Z,8.8
2019-05-06T10:43:28.769Z,8.9
2019-05-06T10:44:28.781Z,8.9
2019-05-06T10:45:28.828Z,8.6
2019-05-06T10:46:28.947Z,8.5
2019-05-06T10:47:28.950Z,8.6
2019-05-06T10:48:28.968Z,8.6
2019-05-06T10:49:29.062Z,8.7
2019-05-06T10:50:29.119Z,8.6
2019-05-06T10:51:29.192Z,8.5
2019-05-06T10:52:29.260Z,8.5
2019-05-06T10:53:29.312Z,8.7
2019-05-06T10:54:29.390Z,8.7
2019-05-06T10:55:29.453Z,8.6
2019-05-06T10:56:49.733Z,8.8
2019-05-06T10:59:06.467Z,9
2019-05-06T10:59:29.685Z,8.9
2019-05-06T11:00:29.723Z,8.9
2019-05-06T11:01:29.792Z,8.8
2019-05-06T11:02:32.245Z,8.6
2019-05-06T11:03:30.015Z,8.6
2019-05-06T11:04:30.295Z,8.6
2019-05-06T11:05:32.380Z,8.7
2019-05-06T11:06:30.200Z,8.8
2019-05-06T11:07:32.633Z,8.7
2019-05-06T11:08:32.450Z,8.9
2019-05-06T11:09:30.270Z,9
2019-05-06T11:10:39.955Z,9.1
2019-05-06T11:11:34.893Z,9
2019-05-06T11:12:32.443Z,9.2
2019-05-06T11:13:32.227Z,9.2
2019-05-06T11:14:32.882Z,9
2019-05-06T11:15:32.962Z,8.9
2019-05-06T11:16:33.832Z,9.1
2019-05-06T11:17:32.606Z,9
2019-05-06T11:18:33.132Z,9.2
2019-05-06T11:19:32.613Z,9.2
2019-05-06T11:20:33.432Z,8.9
2019-05-06T11:21:32.804Z,8.9
2019-05-06T11:22:32.633Z,9.1
2019-05-06T11:23:57.448Z,9.2
2019-05-06T11:24:37.560Z,9
2019-05-06T11:25:32.256Z,8.9
2019-05-06T11:26:58.383Z,8.8
2019-05-06T11:27:32.506Z,8.9
2019-05-06T11:28:34.697Z,9
2019-05-06T11:29:33.859Z,9.1
2019-05-06T11:30:33.129Z,9.2
2019-05-06T11:31:33.134Z,9.1
2019-05-06T11:32:33.017Z,9
2019-05-06T11:33:32.900Z,8.9
2019-05-06T11:34:32.710Z,9
2019-05-06T11:35:32.473Z,9.1
2019-05-06T11:36:32.339Z,8.8
2019-05-06T11:37:43.464Z,8.6
2019-05-06T11:38:32.326Z,8.4
2019-05-06T11:39:32.261Z,8.5
2019-05-06T11:40:32.962Z,8.6
2019-05-06T11:41:32.355Z,8.6
2019-05-06T11:42:35.754Z,8.6
2019-05-06T11:43:38.399Z,8.8
2019-05-06T11:44:38.426Z,8.8
2019-05-06T11:45:35.420Z,8.8
2019-05-06T11:46:56.474Z,8.7
2019-05-06T11:48:04.956Z,8.4
2019-05-06T11:48:33.004Z,8.2
2019-05-06T11:49:38.102Z,8
2019-05-06T11:50:46.242Z,8
2019-05-06T11:51:34.686Z,7.9
2019-05-06T11:53:16.908Z,8.1
2019-05-06T11:53:33.281Z,8.2
2019-05-06T11:54:33.798Z,8.3
2019-05-06T11:55:38.549Z,8.4
2019-05-06T11:56:46.957Z,8.5
2019-05-06T11:57:32.970Z,8.6
2019-05-06T11:58:33.010Z,8.5
2019-05-06T11:59:33.096Z,8.4
2019-05-06T12:00:35.823Z,8.5
2019-05-06T12:01:34.363Z,8.6
2019-05-06T12:02:33.304Z,8.4
2019-05-06T12:03:39.630Z,8.3
2019-05-06T12:04:34.426Z,8.2
2019-05-06T12:05:33.645Z,8.2
2019-05-06T12:06:33.467Z,8.1
2019-05-06T12:07:33.539Z,8.1
2019-05-06T12:08:33.666Z,8.2
2019-05-06T12:09:33.684Z,8.1
2019-05-06T12:10:33.767Z,8.3
2019-05-06T12:11:33.800Z,8.4
2019-05-06T12:12:33.811Z,8.3
2019-05-06T12:13:33.905Z,8.3
2019-05-06T12:14:33.939Z,8.5
2019-05-06T12:15:34.063Z,8.8
2019-05-06T12:16:34.032Z,9
2019-05-06T12:17:34.189Z,9.2
2019-05-06T12:18:34.173Z,9.1
2019-05-06T12:19:34.231Z,9.2
2019-05-06T12:20:34.355Z,9.3
2019-05-06T12:21:34.343Z,9.3
2019-05-06T12:22:34.472Z,9.2
2019-05-06T12:23:35.530Z,8.9
2019-05-06T12:24:34.571Z,8.9
2019-05-06T12:25:34.635Z,9
2019-05-06T12:26:34.688Z,9.1
2019-05-06T12:27:34.667Z,9.2
2019-05-06T12:28:34.791Z,9.2
2019-05-06T12:29:34.825Z,9.1
2019-05-06T12:30:34.937Z,9.1
2019-05-06T12:31:35.185Z,8.9
2019-05-06T12:32:59.835Z,8.9
2019-05-06T12:33:35.146Z,8.9
2019-05-06T12:34:35.207Z,9
2019-05-06T12:35:35.298Z,9.2
2019-05-06T12:36:35.395Z,9
2019-05-06T12:37:35.307Z,9
2019-05-06T12:38:35.360Z,9
2019-05-06T12:39:35.391Z,8.9
2019-05-06T12:40:35.635Z,9.1
2019-05-06T12:41:35.543Z,9.2
2019-05-06T12:42:35.531Z,9.2
2019-05-06T12:43:35.573Z,9.2
2019-05-06T12:44:35.701Z,9.2
2019-05-06T12:45:35.792Z,9.2
2019-05-06T12:46:35.756Z,9.3
2019-05-06T12:47:35.817Z,9.4
2019-05-06T12:48:35.876Z,9.3
2019-05-06T12:49:35.932Z,9.2
2019-05-06T12:50:36.026Z,9.2
2019-05-06T12:51:36.044Z,9
2019-05-06T12:52:36.175Z,9
2019-05-06T12:53:36.206Z,9
2019-05-06T12:54:36.265Z,9.1
2019-05-06T12:56:12.775Z,9.2
2019-05-06T12:56:36.345Z,9.2
2019-05-06T12:57:36.442Z,9.2
2019-05-06T12:58:37.557Z,9.3
2019-05-06T12:59:42.488Z,9.4
2019-05-06T13:00:37.661Z,9.3
2019-05-06T13:01:39.132Z,9.4
2019-05-06T13:02:36.850Z,9.4
2019-05-06T13:03:37.143Z,9.3
2019-05-06T13:04:51.072Z,9.2
2019-05-06T13:05:39.681Z,9.2
2019-05-06T13:06:37.520Z,9.3
2019-05-06T13:07:39.192Z,9.3
2019-05-06T13:08:53.751Z,9.4
2019-05-06T13:09:43.097Z,9.3
2019-05-06T13:10:37.211Z,9.2
2019-05-06T13:11:38.189Z,9.3
2019-05-06T13:12:37.268Z,9.3
2019-05-06T13:13:37.365Z,9.3
2019-05-06T13:14:37.420Z,9.1
2019-05-06T13:15:38.165Z,9.1
2019-05-06T13:16:37.573Z,9.2
2019-05-06T13:17:38.591Z,9.2
2019-05-06T13:18:37.656Z,9.2
2019-05-06T13:19:42.827Z,9.2
2019-05-06T13:20:37.890Z,9.2
2019-05-06T13:21:42.187Z,9.3
2019-05-06T13:22:38.346Z,9.3
2019-05-06T13:23:39.682Z,9.3
2019-05-06T13:24:38.009Z,9.1
2019-05-06T13:25:42.918Z,9.1
2019-05-06T13:26:38.195Z,9.2
2019-05-06T13:27:42.572Z,9.1
2019-05-06T13:28:38.308Z,9.2
2019-05-06T13:29:39.899Z,9.3
2019-05-06T13:30:38.411Z,9.3
2019-05-06T13:31:40.418Z,9.3
2019-05-06T13:32:52.339Z,9.3
2019-05-06T13:33:43.220Z,9.5
2019-05-06T13:34:38.601Z,9.7
2019-05-06T13:35:41.910Z,9.6
2019-05-06T13:36:38.828Z,9.7
2019-05-06T13:37:42.095Z,9.5
2019-05-06T13:38:38.818Z,9.5
2019-05-06T13:39:43.194Z,9.4
2019-05-06T13:40:50.605Z,9.5
2019-05-06T13:41:42.083Z,9.4
2019-05-06T13:42:39.072Z,9.4
2019-05-06T13:43:40.200Z,9.5
2019-05-06T13:44:39.391Z,9.5
2019-05-06T13:45:43.466Z,9.4
2019-05-06T13:46:49.424Z,9.4
2019-05-06T13:48:28.263Z,9.3
2019-05-06T13:48:39.658Z,9.3
2019-05-06T13:49:39.594Z,9.5
2019-05-06T13:50:41.792Z,9.5
2019-05-06T13:51:40.088Z,9.5
2019-05-06T13:52:39.753Z,9.6
2019-05-06T13:53:43.909Z,9.5